Time;durP1;ratioP1;P1;durP2;ratioP2;P2;SDS_P1;SDS_P2;PMS_P1;PMS_P2;Temp;Humidity;BMP_temperature;BMP_pressure;BME280_temperature;BME280_humidity;BME280_pressure;Samples;Min_cycle;Max_cycle;Signal;HPM_P1;HPM_P2
2021/09/19 00:00:39;;;;;;;12.90;9.65;;;;;;;17.93;58.16;99918.41;5050329;28;20057;-21
2021/09/19 00:03:04;;;;;;;15.05;9.40;;;;;;;17.46;59.45;99901.38;5051185;28;20039;-21
2021/09/19 00:05:30;;;;;;;14.15;10.55;;;;;;;17.72;59.29;99919.50;5051117;28;20087;-21
2021/09/19 00:07:55;;;;;;;11.70;9.35;;;;;;;17.79;58.17;99911.91;5051047;28;20025;-21
2021/09/19 00:10:21;;;;;;;11.82;9.55;;;;;;;18.06;57.36;99904.38;5050716;28;20099;-21
2021/09/19 00:12:46;;;;;;;12.70;8.93;;;;;;;17.62;57.82;99910.31;5050893;28;20033;-21
2021/09/19 00:15:14;;;;;;;12.18;9.15;;;;;;;18.03;57.24;99912.22;5032982;28;20055;-22
2021/09/19 00:17:40;;;;;;;;;;;;;;;18.22;56.75;99909.75;5051342;28;20033;-21
2021/09/19 00:20:06;;;;;;;11.40;9.25;;;;;;;17.86;57.59;99907.09;5050793;28;20050;-22
2021/09/19 00:22:32;;;;;;;11.63;8.90;;;;;;;17.78;57.95;99905.72;5050549;28;20086;-21
2021/09/19 00:24:58;;;;;;;14.38;10.30;;;;;;;17.11;60.81;99901.34;5050686;28;20393;-21
2021/09/19 00:27:23;;;;;;;14.30;10.00;;;;;;;16.65;62.70;99883.13;5050611;28;20465;-21
2021/09/19 00:29:48;;;;;;;13.57;9.70;;;;;;;16.69;62.75;99897.69;5051015;28;20431;-22
2021/09/19 00:32:14;;;;;;;10.98;8.63;;;;;;;16.44;62.87;99903.75;5050518;28;20036;-21
2021/09/19 00:34:39;;;;;;;11.35;8.00;;;;;;;16.23;63.35;99913.63;5050490;28;20033;-21
2021/09/19 00:37:05;;;;;;;11.30;8.60;;;;;;;16.29;63.17;99912.56;5050640;28;20029;-21
2021/09/19 00:39:30;;;;;;;11.93;9.10;;;;;;;15.97;63.95;99908.06;5050298;28;20469;-22
2021/09/19 00:41:56;;;;;;;11.63;9.23;;;;;;;15.92;64.38;99902.66;5050344;28;20043;-21
2021/09/19 00:44:26;;;;;;;10.73;8.65;;;;;;;16.18;63.96;99910.88;5050169;28;20048;-22
2021/09/19 00:46:52;;;;;;;10.48;8.77;;;;;;;16.40;62.81;99903.47;5032506;28;20082;-21
2021/09/19 00:49:17;;;;;;;11.02;9.10;;;;;;;16.91;61.20;99902.91;5050171;28;20492;-21
2021/09/19 00:51:43;;;;;;;22.23;13.70;;;;;;;17.57;59.22;99894.16;5050542;28;20032;-21
2021/09/19 00:54:08;;;;;;;20.42;12.27;;;;;;;17.68;59.22;99901.13;5050411;28;20405;-21
2021/09/19 00:56:34;;;;;;;14.65;9.50;;;;;;;17.86;57.97;99899.00;5032395;28;20048;-21
2021/09/19 00:58:59;;;;;;;12.77;9.90;;;;;;;17.85;58.31;99905.47;4999237;28;20052;-21
2021/09/19 01:01:25;;;;;;;13.43;9.38;;;;;;;17.94;58.69;99884.97;5049967;28;20370;-22
2021/09/19 01:03:52;;;;;;;12.45;9.77;;;;;;;17.76;59.59;99909.78;5050041;28;20083;-22
2021/09/19 01:06:17;;;;;;;14.20;10.57;;;;;;;17.58;60.06;99889.56;5049854;28;20496;-22
2021/09/19 01:08:44;;;;;;;10.95;8.77;;;;;;;17.11;62.32;99907.53;5049963;28;20029;-21
2021/09/19 01:11:10;;;;;;;11.82;9.48;;;;;;;17.32;61.40;99902.19;5049645;28;20129;-22
2021/09/19 01:13:36;;;;;;;13.65;9.35;;;;;;;17.81;59.42;99915.97;5049992;28;20071;-21
2021/09/19 01:16:01;;;;;;;14.98;9.73;;;;;;;17.34;60.16;99902.72;5032029;28;20052;-22
2021/09/19 01:18:27;;;;;;;12.70;9.60;;;;;;;17.29;60.19;99916.22;5031699;28;20520;-21
2021/09/19 01:20:52;;;;;;;13.90;10.05;;;;;;;17.22;60.26;99893.03;5015517;28;20032;-21
2021/09/19 01:23:18;;;;;;;18.17;11.35;;;;;;;17.93;58.44;99915.72;5049509;28;20032;-21
2021/09/19 01:25:44;;;;;;;18.67;11.00;;;;;;;17.68;59.22;99908.44;5031679;28;20028;-21
2021/09/19 01:28:09;;;;;;;15.75;11.25;;;;;;;17.53;60.18;99903.84;5049349;28;20036;-22
2021/09/19 01:30:35;;;;;;;11.95;9.63;;;;;;;17.33;61.41;99909.22;5049671;28;20025;-21
2021/09/19 01:33:01;;;;;;;14.57;10.32;;;;;;;17.46;60.92;99895.19;5049376;28;20075;-21
2021/09/19 01:35:26;;;;;;;14.05;10.15;;;;;;;17.02;62.43;99917.22;5049420;28;20119;-21
2021/09/19 01:37:55;;;;;;;12.35;9.80;;;;;;;16.78;62.62;99914.16;5049329;28;20056;-22
2021/09/19 01:40:20;;;;;;;11.65;8.88;;;;;;;17.13;61.46;99920.75;5049139;28;20040;-21
2021/09/19 01:42:46;;;;;;;12.15;9.23;;;;;;;17.34;60.36;99913.53;5049406;28;20024;-21
2021/09/19 01:45:11;;;;;;;12.45;9.52;;;;;;;17.52;60.21;99929.16;5049330;28;20033;-21
2021/09/19 01:47:37;;;;;;;15.55;9.48;;;;;;;17.28;61.20;99931.56;5049177;28;20029;-21
2021/09/19 01:50:03;;;;;;;10.65;9.10;;;;;;;17.18;61.73;99918.91;5049181;28;20409;-21
2021/09/19 01:52:28;;;;;;;10.88;8.85;;;;;;;17.17;61.82;99922.66;5048897;28;20029;-21
2021/09/19 01:54:54;;;;;;;10.35;8.55;;;;;;;17.59;60.91;99932.44;5048995;28;20500;-21
2021/09/19 01:57:22;;;;;;;12.48;9.48;;;;;;;17.52;60.43;99926.47;5049236;28;20106;-21
2021/09/19 01:59:49;;;;;;;13.82;9.75;;;;;;;17.65;60.24;99934.06;5048884;28;20052;-22
2021/09/19 02:02:14;;;;;;;12.90;8.70;;;;;;;17.18;61.49;99913.50;5048748;28;20112;-22
2021/09/19 02:04:40;;;;;;;10.85;9.10;;;;;;;16.96;62.66;99920.97;5049239;28;20136;-21
2021/09/19 02:07:05;;;;;;;12.43;9.20;;;;;;;17.05;61.93;99895.94;5049140;28;20028;-22
2021/09/19 02:09:31;;;;;;;13.63;9.38;;;;;;;17.37;61.05;99927.28;5049129;28;20048;-21
2021/09/19 02:11:56;;;;;;;14.20;9.25;;;;;;;17.60;60.28;99909.75;5048903;28;20090;-22
2021/09/19 02:14:22;;;;;;;14.73;10.15;;;;;;;17.12;61.88;99906.50;5048664;28;20040;-21
2021/09/19 02:16:47;;;;;;;11.85;9.63;;;;;;;17.23;61.72;99916.19;5048896;28;20515;-21
2021/09/19 02:19:13;;;;;;;15.15;10.25;;;;;;;16.86;63.50;99919.06;5048840;28;20041;-21
2021/09/19 02:21:38;;;;;;;25.77;12.27;;;;;;;17.21;62.19;99918.34;5048529;28;20036;-22
2021/09/19 02:24:04;;;;;;;17.30;11.82;;;;;;;17.62;60.48;99913.00;5048706;28;20774;-21
2021/09/19 02:26:29;;;;;;;29.73;17.70;;;;;;;17.31;61.79;99922.16;5048467;28;20047;-21
2021/09/19 02:28:55;;;;;;;23.02;14.00;;;;;;;17.25;61.84;99903.25;5048598;28;20040;-21
2021/09/19 02:31:20;;;;;;;13.75;10.60;;;;;;;17.72;60.08;99908.69;5048659;28;20033;-21
2021/09/19 02:33:46;;;;;;;12.88;10.45;;;;;;;18.00;58.82;99902.78;5048639;28;20032;-22
2021/09/19 02:36:11;;;;;;;12.80;9.88;;;;;;;17.80;59.16;99902.75;5048449;28;20039;-21
2021/09/19 02:38:37;;;;;;;12.55;9.93;;;;;;;17.51;60.28;99892.53;5030812;28;20051;-22
2021/09/19 02:41:02;;;;;;;13.32;9.77;;;;;;;17.95;58.87;99900.06;5048675;28;20540;-22
2021/09/19 02:43:28;;;;;;;13.48;10.02;;;;;;;17.01;62.00;99894.84;5048810;28;20116;-21
2021/09/19 02:45:53;;;;;;;12.98;9.82;;;;;;;17.16;61.21;99902.19;5048173;28;20515;-22
2021/09/19 02:48:18;;;;;;;11.88;10.15;;;;;;;17.44;60.26;99878.47;5048768;28;20044;-21
2021/09/19 02:50:44;;;;;;;11.75;9.82;;;;;;;17.80;59.35;99897.38;5048475;28;20033;-21
2021/09/19 02:53:09;;;;;;;12.40;9.57;;;;;;;17.04;61.63;99898.88;5048470;28;20048;-21
2021/09/19 02:55:35;;;;;;;15.30;10.27;;;;;;;17.44;60.51;99897.34;5048471;28;20037;-22
2021/09/19 02:58:00;;;;;;;15.43;10.98;;;;;;;17.45;60.50;99890.91;5048277;28;20089;-21
2021/09/19 03:00:26;;;;;;;16.08;10.38;;;;;;;16.53;62.82;99886.06;5047959;28;20504;-22
2021/09/19 03:02:51;;;;;;;19.13;12.32;;;;;;;16.66;63.01;99890.13;5048433;28;20400;-21
2021/09/19 03:05:17;;;;;;;16.88;10.98;;;;;;;16.72;62.52;99881.00;5048316;28;20025;-22
2021/09/19 03:07:42;;;;;;;16.80;11.75;;;;;;;16.78;61.80;99861.09;5048178;28;20033;-21
2021/09/19 03:10:08;;;;;;;16.48;11.45;;;;;;;17.24;60.90;99872.00;5048362;28;20033;-21
2021/09/19 03:12:34;;;;;;;17.15;11.80;;;;;;;16.47;63.38;99870.94;5048484;28;20086;-21
2021/09/19 03:15:00;;;;;;;14.63;10.48;;;;;;;15.86;65.65;99882.16;5048637;28;20033;-21
2021/09/19 03:17:25;;;;;;;14.82;10.25;;;;;;;15.42;66.91;99871.56;5048263;28;20090;-22
2021/09/19 03:19:51;;;;;;;13.52;10.32;;;;;;;15.51;66.70;99872.72;5048245;28;20025;-21
2021/09/19 03:22:16;;;;;;;13.82;9.73;;;;;;;15.84;65.72;99895.06;5047929;28;20503;-21
2021/09/19 03:24:41;;;;;;;16.42;10.60;;;;;;;16.00;65.42;99899.47;5048595;28;20040;-21
2021/09/19 03:27:07;;;;;;;14.93;10.13;;;;;;;16.48;63.40;99902.16;5048130;28;20032;-21
2021/09/19 03:29:32;;;;;;;14.88;10.55;;;;;;;16.22;64.37;99901.22;5048134;28;20549;-22
2021/09/19 03:31:58;;;;;;;20.83;12.10;;;;;;;16.18;64.65;99900.13;5048259;28;20029;-21
2021/09/19 03:34:23;;;;;;;17.15;11.75;;;;;;;16.32;63.61;99884.31;5030763;28;20462;-21
2021/09/19 03:36:50;;;;;;;15.95;12.30;;;;;;;16.59;62.80;99895.78;5051690;28;20484;-21
2021/09/19 03:39:15;;;;;;;17.00;12.00;;;;;;;16.61;62.25;99887.41;5051723;28;20028;-21
2021/09/19 03:41:41;;;;;;;15.15;11.45;;;;;;;16.81;62.01;99906.38;5051642;28;20056;-21
2021/09/19 03:44:08;;;;;;;24.65;12.10;;;;;;;16.41;63.11;99905.09;5051742;28;20029;-21
2021/09/19 03:46:33;;;;;;;18.10;10.65;;;;;;;16.21;63.46;99896.91;5051236;28;20116;-22
2021/09/19 03:48:59;;;;;;;15.75;11.40;;;;;;;16.57;62.44;99908.69;5051546;28;20036;-21
2021/09/19 03:51:24;;;;;;;17.75;12.48;;;;;;;16.16;63.59;99903.09;5033703;28;20029;-22
2021/09/19 03:53:50;;;;;;;17.77;12.82;;;;;;;15.79;65.35;99913.84;5051530;28;20469;-21
2021/09/19 03:56:15;;;;;;;17.63;10.75;;;;;;;15.44;66.77;99907.06;5051118;28;20428;-21
2021/09/19 03:58:41;;;;;;;15.68;11.30;;;;;;;15.54;66.13;99904.47;5051005;28;20041;-21
2021/09/19 04:01:06;;;;;;;18.65;10.50;;;;;;;15.10;67.52;99923.38;5051261;28;20025;-21
2021/09/19 04:03:31;;;;;;;16.20;10.90;;;;;;;15.00;67.90;99928.66;5051131;28;20044;-21
2021/09/19 04:05:57;;;;;;;14.75;9.95;;;;;;;15.06;67.38;99908.84;5051063;28;20025;-21
2021/09/19 04:08:22;;;;;;;15.23;10.70;;;;;;;15.92;64.41;99921.47;5050939;28;20463;-22
2021/09/19 04:10:48;;;;;;;18.00;12.15;;;;;;;16.13;63.37;99902.78;5051168;28;20535;-21
2021/09/19 04:13:13;;;;;;;25.40;12.60;;;;;;;16.43;62.94;99924.50;5050916;28;20143;-21
2021/09/19 04:15:39;;;;;;;23.77;14.23;;;;;;;16.47;62.53;99917.50;5050936;28;20036;-21
2021/09/19 04:18:04;;;;;;;26.52;16.23;;;;;;;16.06;64.40;99919.16;5050870;28;20394;-21
2021/09/19 04:20:31;;;;;;;25.58;16.05;;;;;;;16.50;62.42;99918.06;5050486;28;20025;-21
2021/09/19 04:22:57;;;;;;;27.17;16.17;;;;;;;15.77;65.12;99905.22;5050760;28;20036;-22
2021/09/19 04:25:22;;;;;;;30.42;15.85;;;;;;;16.13;64.17;99917.03;5050936;28;20037;-21
2021/09/19 04:27:47;;;;;;;16.85;11.98;;;;;;;16.05;64.45;99915.63;5050952;28;20900;-22
2021/09/19 04:30:13;;;;;;;19.13;12.85;;;;;;;15.70;65.89;99916.16;5050440;28;20025;-22
2021/09/19 04:32:38;;;;;;;37.60;15.00;;;;;;;15.99;65.34;99922.06;5050725;28;20025;-21
2021/09/19 04:35:04;;;;;;;18.60;13.25;;;;;;;16.12;64.61;99918.13;5050585;28;20029;-22
2021/09/19 04:37:30;;;;;;;21.55;12.88;;;;;;;16.54;63.03;99938.00;5050668;28;20194;-22
2021/09/19 04:39:55;;;;;;;21.38;12.18;;;;;;;16.74;62.00;99931.91;5050342;28;20025;-22
2021/09/19 04:42:22;;;;;;;17.60;11.70;;;;;;;16.16;64.18;99934.53;5050197;28;20588;-21
2021/09/19 04:44:48;;;;;;;23.17;11.27;;;;;;;15.88;63.32;99933.81;5050218;28;20021;-21
2021/09/19 04:47:13;;;;;;;22.55;12.25;;;;;;;15.97;62.49;99937.63;5050177;28;20035;-21
2021/09/19 04:49:39;;;;;;;18.17;12.93;;;;;;;16.40;61.61;99941.16;5050300;28;20106;-22
2021/09/19 04:52:05;;;;;;;18.88;12.88;;;;;;;16.39;61.42;99944.94;5050217;28;20040;-21
2021/09/19 04:54:30;;;;;;;18.75;12.80;;;;;;;16.24;62.11;99926.81;5050124;28;20620;-21
2021/09/19 04:56:56;;;;;;;16.45;13.02;;;;;;;15.73;64.92;99941.75;5050103;28;20495;-22
2021/09/19 04:59:21;;;;;;;15.70;11.07;;;;;;;15.49;65.60;99944.75;5049856;28;20065;-21
2021/09/19 05:01:46;;;;;;;17.92;11.48;;;;;;;15.94;64.14;99942.75;5050063;28;20143;-21
2021/09/19 05:04:12;;;;;;;17.27;11.25;;;;;;;16.62;61.89;99948.28;5050100;28;20095;-21
2021/09/19 05:06:37;;;;;;;17.35;11.07;;;;;;;16.85;61.13;99937.09;5050027;28;20555;-21
2021/09/19 05:09:03;;;;;;;17.13;11.48;;;;;;;16.44;63.31;99933.38;5050080;28;20403;-22
2021/09/19 05:11:28;;;;;;;16.75;11.45;;;;;;;16.84;61.63;99922.00;5049960;28;20025;-21
2021/09/19 05:13:54;;;;;;;16.63;11.32;;;;;;;16.91;61.83;99919.06;5049809;28;20029;-22
2021/09/19 05:16:19;;;;;;;15.70;11.02;;;;;;;16.65;63.43;99926.19;5049736;28;20064;-21
2021/09/19 05:18:45;;;;;;;14.95;10.20;;;;;;;17.07;62.04;99928.81;5049812;28;20025;-22
2021/09/19 05:21:10;;;;;;;14.93;10.23;;;;;;;16.71;63.53;99935.91;5049513;28;20033;-21
2021/09/19 05:23:35;;;;;;;12.90;9.60;;;;;;;16.63;63.96;99936.41;5049754;28;20071;-21
2021/09/19 05:26:01;;;;;;;17.73;10.55;;;;;;;16.54;64.47;99940.69;5049477;28;20025;-21
2021/09/19 05:28:26;;;;;;;15.70;10.32;;;;;;;16.83;64.24;99947.31;5049397;28;20114;-24
2021/09/19 05:30:52;;;;;;;26.23;14.98;;;;;;;17.16;63.07;99950.69;5049597;28;20021;-24
2021/09/19 05:33:18;;;;;;;14.32;10.63;;;;;;;17.66;61.11;99945.63;5049514;28;20062;-24
2021/09/19 05:35:44;;;;;;;26.23;15.80;;;;;;;17.89;60.66;99936.22;5049461;28;20222;-23
2021/09/19 05:38:09;;;;;;;15.10;10.20;;;;;;;18.11;59.12;99944.03;5049815;28;20506;-24
2021/09/19 05:40:35;;;;;;;15.18;10.65;;;;;;;18.10;59.23;99952.41;5031347;28;20059;-24
2021/09/19 05:43:02;;;;;;;13.85;9.65;;;;;;;18.10;59.61;99944.31;5049532;28;20506;-24
2021/09/19 05:45:28;;;;;;;12.45;9.32;;;;;;;18.15;59.87;99938.91;5049282;28;20122;-24
2021/09/19 05:47:54;;;;;;;14.30;10.15;;;;;;;18.42;59.48;99942.09;5049261;28;20029;-21
2021/09/19 05:50:19;;;;;;;11.00;8.10;;;;;;;18.51;57.74;99961.25;5048879;28;20032;-21
2021/09/19 05:52:44;;;;;;;8.98;7.32;;;;;;;18.45;57.85;99952.34;5049168;28;20033;-20
2021/09/19 05:55:10;;;;;;;10.07;8.07;;;;;;;18.14;58.29;99934.59;5049042;28;20028;-21
2021/09/19 05:57:35;;;;;;;12.80;9.35;;;;;;;18.28;58.43;99935.63;5048177;28;20870;-21
2021/09/19 06:00:01;;;;;;;9.23;6.82;;;;;;;18.61;57.08;99936.09;5048926;28;20052;-21
2021/09/19 06:02:26;;;;;;;8.70;6.95;;;;;;;19.04;55.22;99920.25;5048729;28;20033;-21
2021/09/19 06:04:52;;;;;;;10.27;7.40;;;;;;;19.24;56.01;99940.97;5048894;28;20029;-21
2021/09/19 06:07:18;;;;;;;11.18;7.00;;;;;;;19.62;54.72;99952.91;5048906;28;20036;-21
2021/09/19 06:09:43;;;;;;;10.77;7.18;;;;;;;19.82;53.69;99945.75;5048954;28;20033;-21
2021/09/19 06:12:09;;;;;;;7.93;6.72;;;;;;;19.82;53.01;99943.84;5048773;28;20032;-21
2021/09/19 06:14:34;;;;;;;9.02;6.38;;;;;;;19.84;53.87;99938.16;5048965;28;20485;-21
2021/09/19 06:17:00;;;;;;;8.40;5.93;;;;;;;19.60;54.16;99944.25;5049223;28;20029;-21
2021/09/19 06:19:25;;;;;;;8.13;5.63;;;;;;;19.56;53.79;99948.63;5048741;28;20025;-21
2021/09/19 06:21:51;;;;;;;17.17;6.28;;;;;;;19.55;54.13;99952.38;5031022;28;20475;-21
2021/09/19 06:24:16;;;;;;;8.23;5.75;;;;;;;19.55;53.55;99941.56;5048581;28;20025;-21
2021/09/19 06:26:42;;;;;;;6.82;5.60;;;;;;;19.89;53.39;99927.28;5048928;28;20040;-21
2021/09/19 06:29:07;;;;;;;7.50;5.53;;;;;;;20.12;52.43;99935.72;5048742;28;20504;-21
2021/09/19 06:31:33;;;;;;;7.38;5.43;;;;;;;19.92;53.34;99928.59;5048715;28;20033;-21
2021/09/19 06:33:58;;;;;;;5.93;4.78;;;;;;;19.74;52.78;99947.16;5048712;28;20036;-21
2021/09/19 06:36:24;;;;;;;6.38;4.88;;;;;;;20.03;52.15;99946.38;5048378;28;20037;-21
2021/09/19 06:38:49;;;;;;;7.68;5.30;;;;;;;20.05;51.87;99945.00;5048637;28;20092;-21
2021/09/19 06:41:15;;;;;;;7.07;5.47;;;;;;;20.04;52.13;99943.41;5048419;28;20044;-21
2021/09/19 06:43:40;;;;;;;7.03;6.00;;;;;;;20.26;52.31;99942.09;5030806;28;20489;-21
2021/09/19 06:46:05;;;;;;;7.95;5.88;;;;;;;20.39;51.34;99949.56;5048577;28;20041;-21
2021/09/19 06:48:31;;;;;;;8.00;5.60;;;;;;;20.03;52.05;99936.34;5048295;28;20044;-20
2021/09/19 06:50:56;;;;;;;7.55;5.45;;;;;;;20.19;51.48;99950.56;5048812;28;20768;-21
2021/09/19 06:53:22;;;;;;;7.10;5.32;;;;;;;20.18;51.68;99953.53;5048560;28;20025;-21
2021/09/19 06:55:47;;;;;;;7.75;5.68;;;;;;;20.12;52.26;99954.69;5048094;28;20033;-21
2021/09/19 06:58:13;;;;;;;8.38;6.03;;;;;;;20.41;51.62;99958.19;5048144;28;20060;-21
2021/09/19 07:00:38;;;;;;;6.25;4.78;;;;;;;20.29;51.34;99963.19;5048185;28;20103;-21
2021/09/19 07:03:04;;;;;;;8.35;5.93;;;;;;;20.70;50.80;99953.84;5048241;28;20033;-21
2021/09/19 07:05:31;;;;;;;7.82;5.57;;;;;;;20.71;51.71;99945.41;5048282;28;20029;-21
2021/09/19 07:07:56;;;;;;;6.70;4.80;;;;;;;20.93;50.92;99957.63;5048252;28;20416;-21
2021/09/19 07:10:22;;;;;;;8.23;5.55;;;;;;;20.99;50.27;99951.06;5051753;28;20294;-21
2021/09/19 07:12:48;;;;;;;7.38;4.70;;;;;;;20.84;50.20;99949.31;5052124;28;20550;-21
2021/09/19 07:15:14;;;;;;;7.95;4.32;;;;;;;20.84;51.52;99944.72;5052000;28;20090;-21
2021/09/19 07:17:39;;;;;;;5.97;4.13;;;;;;;20.93;49.41;99946.78;5051924;28;20045;-21
2021/09/19 07:20:06;;;;;;;7.07;4.60;;;;;;;21.12;49.53;99961.16;5051940;28;20423;-21
2021/09/19 07:22:32;;;;;;;6.77;4.30;;;;;;;21.23;49.56;99962.66;5051843;28;20111;-21
2021/09/19 07:24:57;;;;;;;6.38;4.40;;;;;;;21.18;49.00;99959.19;5051792;28;20033;-21
2021/09/19 07:27:23;;;;;;;5.78;4.05;;;;;;;21.09;49.21;99961.75;5051856;28;20032;-21
2021/09/19 07:29:49;;;;;;;7.28;4.43;;;;;;;21.07;49.90;99955.81;5052061;28;20033;-21
2021/09/19 07:32:14;;;;;;;6.32;4.28;;;;;;;21.27;48.99;99957.47;5051985;28;20911;-21
2021/09/19 07:34:40;;;;;;;9.20;4.78;;;;;;;21.43;49.15;99960.78;5051793;28;20420;-21
2021/09/19 07:37:06;;;;;;;6.88;4.38;;;;;;;21.58;47.58;99968.69;5051718;28;20107;-21
2021/09/19 07:39:32;;;;;;;7.50;4.72;;;;;;;21.61;48.30;99951.81;5051488;28;20094;-21
2021/09/19 07:41:58;;;;;;;10.15;5.00;;;;;;;21.56;47.79;99961.97;5051731;28;20496;-21
2021/09/19 07:44:23;;;;;;;7.85;4.25;;;;;;;22.01;48.52;99971.25;5051373;28;20102;-21
2021/09/19 07:46:50;;;;;;;9.38;4.68;;;;;;;22.07;47.49;99958.41;5033624;28;20090;-21
2021/09/19 07:49:20;;;;;;;7.25;4.55;;;;;;;21.95;47.24;99961.59;5051613;28;20025;-21
2021/09/19 07:51:45;;;;;;;7.40;4.47;;;;;;;21.92;47.31;99953.22;5051780;28;20033;-21
2021/09/19 07:54:11;;;;;;;7.20;4.47;;;;;;;22.03;47.11;99947.34;5050997;28;20035;-20
2021/09/19 07:56:37;;;;;;;5.90;4.68;;;;;;;22.44;46.64;99930.31;5051204;28;20090;-20
2021/09/19 07:59:02;;;;;;;5.88;4.18;;;;;;;22.63;47.44;99921.25;5033121;28;20053;-21
2021/09/19 08:01:27;;;;;;;6.05;4.07;;;;;;;22.71;45.62;99931.41;5051111;28;20033;-21
2021/09/19 08:03:53;;;;;;;6.47;4.03;;;;;;;22.81;45.02;99933.91;5051258;28;20033;-21
2021/09/19 08:06:22;;;;;;;8.07;4.25;;;;;;;22.64;48.18;99929.13;5051137;28;20492;-21
2021/09/19 08:08:48;;;;;;;8.10;5.25;;;;;;;22.66;46.41;99931.53;5051022;28;20048;-21
2021/09/19 08:11:13;;;;;;;7.65;5.57;;;;;;;22.87;46.98;99921.84;5051070;28;20029;-21
2021/09/19 08:13:38;;;;;;;14.25;9.63;;;;;;;23.35;44.64;99927.88;5050262;28;20032;-21
2021/09/19 08:16:04;;;;;;;9.60;5.97;;;;;;;23.26;44.81;99927.81;5033054;28;20029;-21
2021/09/19 08:18:30;;;;;;;9.73;5.40;;;;;;;23.30;44.26;99933.47;5050554;28;20463;-21
2021/09/19 08:20:55;;;;;;;8.73;4.75;;;;;;;23.46;43.88;99934.72;5032266;28;20029;-21
2021/09/19 08:23:20;;;;;;;8.05;4.47;;;;;;;23.51;44.59;99918.25;5050840;28;20048;-21
2021/09/19 08:25:46;;;;;;;7.82;3.90;;;;;;;23.80;43.34;99938.81;5050684;28;20034;-21
2021/09/19 08:28:11;;;;;;;6.53;4.05;;;;;;;23.99;42.71;99934.00;5050381;28;20048;-21
2021/09/19 08:30:37;;;;;;;7.03;4.35;;;;;;;24.05;42.72;99937.38;5050568;28;20099;-21
2021/09/19 08:33:02;;;;;;;7.43;5.30;;;;;;;24.58;42.64;99928.34;5050843;28;20558;-21
2021/09/19 08:35:28;;;;;;;8.95;4.30;;;;;;;24.54;40.89;99937.44;5050683;28;20024;-21
2021/09/19 08:37:53;;;;;;;8.00;4.80;;;;;;;24.50;41.00;99942.75;5050545;28;20079;-21
2021/09/19 08:40:19;;;;;;;6.13;4.25;;;;;;;24.46;40.64;99930.84;5050165;28;20036;-20
2021/09/19 08:42:44;;;;;;;7.70;4.30;;;;;;;24.84;41.35;99925.66;5050576;28;20029;-21
2021/09/19 08:45:10;;;;;;;6.93;3.90;;;;;;;25.21;41.35;99923.53;5050199;28;20032;-21
2021/09/19 08:47:36;;;;;;;8.30;4.35;;;;;;;25.30;40.17;99909.88;5032430;28;20027;-21
2021/09/19 08:50:07;;;;;;;7.75;4.40;;;;;;;24.75;40.81;99922.13;5050538;28;20396;-21
2021/09/19 08:52:33;;;;;;;5.68;4.18;;;;;;;25.04;41.43;99918.81;5049867;28;20115;-21
2021/09/19 08:54:58;;;;;;;7.88;4.80;;;;;;;25.25;40.06;99919.03;5050341;28;20096;-21
2021/09/19 08:57:23;;;;;;;8.05;4.47;;;;;;;25.52;40.41;99906.16;5049959;28;20037;-22
2021/09/19 08:59:51;;;;;;;9.20;4.43;;;;;;;25.21;40.01;99923.53;5049678;28;20574;-22
2021/09/19 09:02:17;;;;;;;;;;;;;;;25.42;41.40;99914.69;5032864;28;20119;-22
2021/09/19 09:04:43;;;;;;;8.50;4.88;;;;;;;25.76;39.09;99900.16;5050055;28;20007;-22
2021/09/19 09:07:09;;;;;;;12.73;4.47;;;;;;;25.63;39.20;99918.34;5049922;28;20519;-22
2021/09/19 09:09:34;;;;;;;6.38;4.15;;;;;;;25.44;40.47;99915.16;5050423;28;20064;-22
2021/09/19 09:12:03;;;;;;;9.27;4.53;;;;;;;25.62;39.82;99907.75;5050262;28;20033;-22
2021/09/19 09:14:28;;;;;;;7.75;4.40;;;;;;;26.06;39.74;99898.34;5050928;28;20037;-22
2021/09/19 09:17:15;;;;;;;6.95;4.00;;;;;;;26.52;38.92;99892.34;5058993;28;20035;-22
2021/09/19 09:19:41;;;;;;;6.30;3.15;;;;;;;26.64;36.63;99896.03;5064109;28;20029;-22
2021/09/19 09:22:09;;;;;;;5.68;3.35;;;;;;;26.73;37.56;99897.91;5053699;28;20032;-22
2021/09/19 09:24:36;;;;;;;4.53;3.33;;;;;;;26.60;36.63;99899.72;5049604;28;20021;-22
2021/09/19 09:27:17;;;;;;;4.00;3.17;;;;;;;26.91;36.45;99904.03;5049660;28;20036;-22
2021/09/19 09:30:09;;;;;;;7.40;3.58;;;;;;;27.34;36.39;99892.81;5049702;28;20037;-22
2021/09/19 09:33:04;;;;;;;5.43;3.17;;;;;;;27.03;36.17;99884.97;5049478;28;20116;-22
2021/09/19 09:35:37;;;;;;;10.80;3.55;;;;;;;26.73;36.50;99882.28;5028235;28;20402;-22
2021/09/19 09:38:16;;;;;;;6.57;3.42;;;;;;;26.61;37.05;99852.91;5049423;28;20040;-22
2021/09/19 09:40:42;;;;;;;9.82;3.42;;;;;;;26.74;37.65;99862.00;5049710;28;20062;-22
2021/09/19 09:43:14;;;;;;;4.43;2.85;;;;;;;26.88;35.21;99858.22;5049380;28;20036;-22
2021/09/19 09:45:41;;;;;;;5.32;2.72;;;;;;;27.32;34.56;99850.44;5049169;28;20032;-22
2021/09/19 09:48:25;;;;;;;6.15;3.00;;;;;;;27.73;33.96;99874.22;5049210;28;20119;-22
2021/09/19 09:50:52;;;;;;;11.90;3.25;;;;;;;27.70;34.40;99868.59;5049269;28;20028;-22
2021/09/19 09:53:21;;;;;;;5.53;3.22;;;;;;;27.95;34.72;99862.06;5049226;28;20025;-22
2021/09/19 09:55:47;;;;;;;6.53;3.00;;;;;;;27.48;36.46;99845.94;5049178;28;20029;-22
2021/09/19 09:58:14;;;;;;;6.60;3.80;;;;;;;27.77;34.55;99842.25;5049018;28;20044;-22
2021/09/19 10:00:40;;;;;;;5.45;3.05;;;;;;;27.94;35.37;99852.25;5049158;28;20084;-22
2021/09/19 10:03:05;;;;;;;5.05;2.92;;;;;;;28.23;33.58;99853.16;5049219;28;20029;-22
2021/09/19 10:05:32;;;;;;;6.45;3.13;;;;;;;28.04;35.89;99854.53;5048865;28;20086;-22
2021/09/19 10:07:58;;;;;;;6.25;3.33;;;;;;;27.70;36.21;99841.22;5049105;28;20074;-22
2021/09/19 10:10:24;;;;;;;5.80;3.35;;;;;;;27.87;35.39;99835.56;5048679;28;20468;-22
2021/09/19 10:12:51;;;;;;;5.20;3.40;;;;;;;27.65;35.04;99832.06;5049100;28;20111;-22
2021/09/19 10:15:16;;;;;;;4.90;3.05;;;;;;;27.33;35.79;99836.44;5048874;28;20082;-22
2021/09/19 10:17:45;;;;;;;5.53;2.83;;;;;;;27.38;36.43;99832.66;5049057;28;20029;-22
2021/09/19 10:20:21;;;;;;;5.10;3.20;;;;;;;27.53;35.26;99832.03;5048774;28;20072;-23
2021/09/19 10:22:48;;;;;;;6.07;3.20;;;;;;;28.22;35.51;99832.38;5031042;28;20110;-22
2021/09/19 10:25:20;;;;;;;10.18;5.60;;;;;;;28.67;35.00;99828.69;5030996;28;20041;-22
2021/09/19 10:27:48;;;;;;;5.18;3.30;;;;;;;28.73;33.70;99821.00;5048730;28;20098;-22
2021/09/19 10:30:13;;;;;;;6.40;2.97;;;;;;;28.60;34.06;99822.97;5048542;28;20047;-22
2021/09/19 10:32:42;;;;;;;6.60;2.80;;;;;;;28.82;34.74;99814.22;5048529;28;20033;-22
2021/09/19 10:35:12;;;;;;;5.07;2.72;;;;;;;28.23;34.44;99806.56;5059281;28;20024;-23
2021/09/19 10:38:06;;;;;;;3.92;2.72;;;;;;;28.80;32.45;99804.75;5058446;28;20033;-22
2021/09/19 10:40:38;;;;;;;6.70;2.78;;;;;;;29.00;33.82;99792.00;5059008;28;20025;-22
2021/09/19 10:43:08;;;;;;;6.15;2.92;;;;;;;28.81;32.71;99779.72;5058949;28;20483;-23
2021/09/19 10:45:42;;;;;;;4.72;2.70;;;;;;;28.21;34.54;99779.47;5062048;28;20104;-23
2021/09/19 10:48:19;;;;;;;5.65;3.08;;;;;;;28.39;33.53;99791.00;5061171;28;20465;-22
2021/09/19 10:50:45;;;;;;;4.85;2.70;;;;;;;29.08;32.73;99796.53;5061131;28;20025;-22
2021/09/19 10:53:16;;;;;;;5.07;2.88;;;;;;;29.36;32.23;99792.97;5062581;28;20448;-23
2021/09/19 10:55:58;;;;;;;6.45;3.17;;;;;;;29.17;32.30;99775.22;5069076;28;20035;-22
2021/09/19 10:58:25;;;;;;;15.45;2.97;;;;;;;29.60;32.39;99784.59;5072212;28;20028;-21
2021/09/19 11:01:16;;;;;;;5.82;3.13;;;;;;;30.23;31.33;99785.72;5072562;28;20063;-21
2021/09/19 11:03:45;;;;;;;4.28;2.40;;;;;;;30.80;29.87;99780.66;5072440;28;20507;-21
2021/09/19 11:06:23;;;;;;;4.03;2.28;;;;;;;30.86;29.98;99784.72;5072261;28;20033;-22
2021/09/19 11:08:48;;;;;;;4.50;2.60;;;;;;;30.54;30.82;99773.06;5072142;28;20396;-21
2021/09/19 11:11:19;;;;;;;6.07;2.50;;;;;;;30.19;31.57;99774.63;5072266;28;20502;-22
2021/09/19 11:13:53;;;;;;;5.82;2.60;;;;;;;29.93;31.43;99772.44;5072194;28;20499;-22
2021/09/19 11:16:21;;;;;;;4.65;2.58;;;;;;;30.25;31.68;99770.44;5071805;28;20042;-22
2021/09/19 11:18:48;;;;;;;5.38;2.85;;;;;;;29.43;31.74;99750.03;5072101;28;20028;-22
2021/09/19 11:21:14;;;;;;;4.57;2.55;;;;;;;30.11;31.24;99761.09;5071930;28;20050;-22
2021/09/19 11:23:46;;;;;;;3.73;2.20;;;;;;;29.68;32.51;99766.31;5071833;28;20148;-22